createdAt,value
2022-09-20T00:00:48.896Z,2.00
2022-09-20T00:03:17.922Z,1.50
2022-09-20T00:05:46.149Z,1.67
2022-09-20T00:08:14.429Z,1.50
2022-09-20T00:10:42.894Z,1.60
2022-09-20T00:13:11.399Z,1.70
2022-09-20T00:15:41.554Z,1.80
2022-09-20T00:18:09.029Z,1.60
2022-09-20T00:20:38.022Z,1.37
2022-09-20T00:23:05.529Z,1.70
2022-09-20T00:25:33.411Z,1.70
2022-09-20T00:28:01.195Z,1.40
2022-09-20T00:30:29.254Z,1.67
2022-09-20T00:32:56.710Z,1.67
2022-09-20T00:35:23.109Z,1.73
2022-09-20T00:37:52.254Z,1.73
2022-09-20T00:40:20.834Z,1.90
2022-09-20T00:42:48.523Z,1.50
2022-09-20T00:45:20.164Z,1.60
2022-09-20T00:47:49.499Z,1.70
2022-09-20T00:50:24.226Z,1.67
2022-09-20T00:52:59.239Z,1.40
2022-09-20T00:55:26.961Z,1.50
2022-09-20T00:57:54.848Z,1.63
2022-09-20T01:00:22.327Z,1.70
2022-09-20T01:02:53.115Z,1.50
2022-09-20T01:05:20.572Z,1.60
2022-09-20T01:07:49.079Z,1.60
2022-09-20T01:10:18.234Z,1.57
2022-09-20T01:12:46.126Z,1.80
2022-09-20T01:15:14.371Z,1.90
2022-09-20T01:17:43.991Z,1.83
2022-09-20T01:20:16.792Z,1.70
2022-09-20T01:22:59.170Z,1.40
2022-09-20T01:25:36.382Z,1.53
2022-09-20T01:28:05.230Z,2.30
2022-09-20T01:30:34.795Z,1.40
2022-09-20T01:33:05.967Z,1.37
2022-09-20T01:35:35.374Z,1.60
2022-09-20T01:38:25.836Z,1.50
2022-09-20T01:40:57.699Z,1.80
2022-09-20T01:43:31.409Z,1.50
2022-09-20T01:46:00.751Z,1.47
2022-09-20T01:48:32.263Z,1.50
2022-09-20T01:51:11.316Z,1.60
2022-09-20T01:54:04.427Z,1.80
2022-09-20T01:56:49.438Z,1.70
2022-09-20T01:59:36.003Z,1.60
2022-09-20T02:02:09.171Z,1.50
2022-09-20T02:04:51.463Z,1.50
2022-09-20T02:07:30.877Z,1.60
2022-09-20T02:10:20.696Z,1.73
2022-09-20T02:12:54.004Z,1.70
2022-09-20T02:15:53.913Z,1.40
2022-09-20T02:18:26.875Z,1.90
2022-09-20T02:20:57.758Z,1.60
2022-09-20T02:23:36.118Z,1.80
2022-09-20T02:26:12.684Z,1.83
2022-09-20T02:28:52.765Z,1.60
2022-09-20T02:31:28.541Z,1.60
2022-09-20T02:34:04.667Z,1.57
2022-09-20T02:36:37.282Z,1.67
2022-09-20T02:39:08.826Z,1.90
2022-09-20T02:41:47.949Z,1.70
2022-09-20T02:44:19.424Z,1.67
2022-09-20T02:46:53.534Z,1.63
2022-09-20T02:49:24.846Z,1.97
2022-09-20T02:51:53.635Z,1.53
2022-09-20T02:54:26.854Z,1.70
2022-09-20T02:56:59.550Z,1.83
2022-09-20T02:59:30.800Z,2.47
2022-09-20T03:02:05.794Z,1.80
2022-09-20T03:04:38.833Z,3.10
2022-09-20T03:07:12.094Z,2.00
2022-09-20T03:09:42.882Z,2.17
2022-09-20T03:12:14.941Z,1.97
2022-09-20T03:14:46.202Z,1.80
2022-09-20T03:17:19.430Z,1.97
2022-09-20T03:19:57.255Z,1.73
2022-09-20T03:22:30.015Z,1.90
2022-09-20T03:25:03.074Z,3.07
2022-09-20T03:27:33.191Z,4.40
2022-09-20T03:30:06.283Z,5.90
2022-09-20T03:32:43.875Z,4.60
2022-09-20T03:35:20.594Z,2.83
2022-09-20T03:37:58.600Z,2.20
2022-09-20T03:40:32.351Z,4.53
2022-09-20T03:43:02.804Z,10.67
2022-09-20T03:45:41.968Z,6.27
2022-09-20T03:48:30.545Z,6.27
2022-09-20T03:51:18.615Z,4.90
2022-09-20T03:53:55.772Z,3.27
2022-09-20T03:56:30.226Z,4.10
2022-09-20T03:59:04.595Z,6.43
2022-09-20T04:01:38.392Z,6.80
2022-09-20T04:04:10.096Z,5.60
2022-09-20T04:06:59.343Z,4.93
2022-09-20T04:09:30.166Z,4.90
2022-09-20T04:12:00.905Z,6.00
2022-09-20T04:14:38.238Z,4.50
2022-09-20T04:17:12.440Z,5.67
2022-09-20T04:19:45.113Z,10.77
2022-09-20T04:22:14.770Z,8.17
2022-09-20T04:24:44.190Z,6.93
2022-09-20T04:27:15.004Z,13.43
2022-09-20T04:29:45.931Z,22.50
2022-09-20T04:32:16.755Z,16.63
2022-09-20T04:35:05.021Z,10.23
2022-09-20T04:37:36.012Z,14.30
2022-09-20T04:40:11.098Z,10.73
2022-09-20T04:42:57.199Z,10.77
2022-09-20T04:45:58.272Z,10.27
2022-09-20T04:48:40.657Z,18.10
2022-09-20T04:51:22.973Z,13.83
2022-09-20T04:54:20.390Z,10.20
2022-09-20T04:56:58.517Z,4.77
2022-09-20T04:59:34.384Z,2.97
2022-09-20T05:02:22.744Z,2.83
2022-09-20T05:05:17.271Z,6.70
2022-09-20T05:08:01.324Z,12.10
2022-09-20T05:10:38.220Z,38.27
2022-09-20T05:13:16.663Z,36.73
2022-09-20T05:15:49.744Z,10.30
2022-09-20T05:18:35.967Z,24.80
2022-09-20T05:21:09.374Z,13.40
2022-09-20T05:23:44.070Z,24.10
2022-09-20T05:26:13.580Z,21.40
2022-09-20T05:28:50.546Z,13.00
2022-09-20T05:31:22.643Z,14.07
2022-09-20T05:33:52.715Z,11.10
2022-09-20T05:36:24.751Z,10.43
2022-09-20T05:38:55.357Z,7.93
2022-09-20T05:41:31.845Z,7.03
2022-09-20T05:44:07.314Z,5.83
2022-09-20T05:46:39.664Z,3.50
2022-09-20T05:49:12.160Z,2.90
2022-09-20T05:51:48.673Z,2.80
2022-09-20T05:54:42.320Z,2.80
2022-09-20T05:57:16.662Z,2.47
2022-09-20T05:59:54.598Z,2.43
2022-09-20T06:02:26.067Z,2.77
2022-09-20T06:04:58.975Z,2.80
2022-09-20T06:07:30.048Z,2.33
2022-09-20T06:10:16.948Z,2.40
2022-09-20T06:12:52.422Z,2.40
2022-09-20T06:15:25.374Z,2.73
2022-09-20T06:17:57.195Z,2.80
2022-09-20T06:20:26.865Z,3.10
2022-09-20T06:22:55.717Z,4.30
2022-09-20T06:25:25.364Z,5.50
2022-09-20T06:27:53.517Z,5.07
2022-09-20T06:30:24.392Z,3.80
2022-09-20T06:32:56.074Z,3.57
2022-09-20T06:35:25.071Z,3.60
2022-09-20T06:38:13.099Z,3.70
2022-09-20T06:41:14.999Z,3.30
2022-09-20T06:43:42.964Z,3.40
2022-09-20T06:46:13.005Z,3.57
2022-09-20T06:48:40.548Z,3.60
2022-09-20T06:51:09.227Z,4.10
2022-09-20T06:53:40.198Z,4.17
2022-09-20T06:56:09.172Z,3.90
2022-09-20T06:58:36.559Z,4.13
2022-09-20T07:01:04.061Z,4.43
2022-09-20T07:03:32.862Z,4.63
2022-09-20T07:06:01.126Z,4.20
2022-09-20T07:08:28.502Z,3.97
2022-09-20T07:10:56.207Z,4.60
2022-09-20T07:13:24.023Z,4.70
2022-09-20T07:15:51.678Z,4.00
2022-09-20T07:18:19.061Z,4.47
2022-09-20T07:20:47.898Z,4.33
2022-09-20T07:23:15.912Z,4.27
2022-09-20T07:25:43.291Z,5.00
2022-09-20T07:28:10.672Z,4.47
2022-09-20T07:30:39.116Z,5.07
2022-09-20T07:33:07.618Z,5.10
2022-09-20T07:35:36.242Z,5.00
2022-09-20T07:38:04.949Z,5.37
2022-09-20T07:40:32.360Z,4.77
2022-09-20T07:42:59.764Z,4.97
2022-09-20T07:45:27.207Z,5.20
2022-09-20T07:47:54.732Z,5.60
2022-09-20T07:50:22.517Z,5.20
2022-09-20T07:52:49.959Z,5.33
2022-09-20T07:55:19.345Z,5.47
2022-09-20T07:57:46.796Z,5.30
2022-09-20T08:00:14.591Z,5.10
2022-09-20T08:02:42.043Z,6.23
2022-09-20T08:05:09.679Z,5.93
2022-09-20T08:07:37.059Z,6.57
2022-09-20T08:10:04.639Z,7.13
2022-09-20T08:15:21.760Z,6.77
2022-09-20T08:17:49.335Z,6.97
2022-09-20T08:20:16.861Z,8.50
2022-09-20T08:22:52.761Z,5.47
2022-09-20T08:25:28.548Z,5.40
2022-09-20T08:27:57.275Z,5.23
2022-09-20T08:30:27.610Z,5.17
2022-09-20T08:32:55.723Z,5.70
2022-09-20T08:35:25.351Z,5.00
2022-09-20T08:37:55.888Z,7.70
2022-09-20T08:40:25.049Z,4.87
2022-09-20T08:42:54.397Z,5.10
2022-09-20T08:45:40.374Z,4.90
2022-09-20T08:48:10.858Z,4.97
2022-09-20T08:50:38.471Z,4.97
2022-09-20T08:53:06.988Z,4.80
2022-09-20T08:55:37.395Z,4.80
2022-09-20T08:58:08.486Z,4.63
2022-09-20T09:00:38.321Z,5.00
2022-09-20T09:03:06.736Z,4.70
2022-09-20T09:05:35.320Z,4.20
2022-09-20T09:08:05.188Z,4.60
2022-09-20T09:10:42.602Z,4.53
2022-09-20T09:13:15.596Z,4.10
2022-09-20T09:15:44.549Z,3.93
2022-09-20T09:18:12.509Z,3.17
2022-09-20T09:20:42.247Z,3.30
2022-09-20T09:23:10.243Z,3.03
2022-09-20T09:25:38.295Z,3.37
2022-09-20T09:28:13.507Z,3.07
2022-09-20T09:30:41.693Z,3.30
2022-09-20T09:33:23.748Z,2.30
2022-09-20T09:35:54.796Z,3.00
2022-09-20T09:38:24.153Z,2.47
2022-09-20T09:40:52.623Z,2.30
2022-09-20T09:43:27.037Z,2.60
2022-09-20T09:45:55.298Z,2.00
2022-09-20T09:48:26.548Z,2.27
2022-09-20T09:51:10.900Z,1.97
2022-09-20T09:53:39.057Z,2.13
2022-09-20T09:56:14.509Z,2.30
2022-09-20T09:58:47.923Z,2.20
2022-09-20T10:01:28.000Z,1.97
2022-09-20T10:04:02.914Z,2.10
2022-09-20T10:06:33.861Z,1.70
2022-09-20T10:09:08.759Z,1.90
2022-09-20T10:11:41.074Z,2.20
2022-09-20T10:14:16.717Z,1.83
2022-09-20T10:16:51.316Z,2.27
2022-09-20T10:19:24.737Z,2.23
2022-09-20T10:21:56.175Z,2.30
2022-09-20T10:24:31.224Z,2.80
2022-09-20T10:27:14.719Z,2.40
2022-09-20T10:29:46.859Z,2.50
2022-09-20T10:32:22.437Z,2.00
2022-09-20T10:35:06.070Z,2.10
2022-09-20T10:37:38.127Z,1.80
2022-09-20T10:40:13.934Z,1.97
2022-09-20T10:43:02.940Z,1.93
2022-09-20T10:46:03.854Z,2.00
2022-09-20T10:48:25.974Z,2.10
2022-09-20T10:50:59.059Z,2.10
2022-09-20T10:53:35.338Z,2.50
2022-09-20T10:56:15.239Z,2.17
2022-09-20T10:58:59.685Z,2.03
2022-09-20T11:01:31.287Z,2.10
2022-09-20T11:04:11.878Z,1.80
2022-09-20T11:06:47.188Z,2.17
2022-09-20T11:09:17.116Z,2.20
2022-09-20T11:11:46.343Z,2.50
2022-09-20T11:14:15.906Z,1.87
2022-09-20T11:16:47.508Z,2.00
2022-09-20T11:19:19.663Z,2.10
2022-09-20T11:21:51.105Z,1.80
2022-09-20T11:24:23.250Z,1.83
2022-09-20T11:26:52.854Z,2.20
2022-09-20T11:29:23.507Z,1.77
2022-09-20T11:31:54.631Z,1.80
2022-09-20T11:34:25.627Z,1.97
2022-09-20T11:36:58.734Z,2.17
2022-09-20T11:39:29.811Z,1.87
2022-09-20T11:41:59.826Z,1.80
2022-09-20T11:44:27.287Z,2.50
2022-09-20T11:46:56.707Z,2.10
2022-09-20T11:49:27.707Z,2.00
2022-09-20T11:52:06.582Z,1.70
2022-09-20T11:54:49.631Z,2.23
2022-09-20T11:57:17.752Z,2.20
2022-09-20T11:59:51.165Z,2.00
2022-09-20T12:02:21.530Z,1.80
2022-09-20T12:04:53.148Z,1.60
2022-09-20T12:07:24.935Z,1.87
2022-09-20T12:09:54.807Z,1.73
2022-09-20T12:12:28.631Z,2.10
2022-09-20T12:14:56.848Z,1.80
2022-09-20T12:17:42.191Z,2.13
2022-09-20T12:20:24.488Z,1.70
2022-09-20T12:22:53.207Z,1.93
2022-09-20T12:25:37.161Z,2.20
2022-09-20T12:28:05.295Z,2.00
2022-09-20T12:30:33.867Z,1.97
2022-09-20T12:33:04.018Z,1.80
2022-09-20T12:36:00.944Z,1.43
2022-09-20T12:38:43.287Z,1.30
2022-09-20T12:41:14.075Z,2.10
2022-09-20T12:43:53.293Z,1.60
2022-09-20T12:46:22.934Z,1.40
2022-09-20T12:48:50.566Z,1.77
2022-09-20T12:51:37.910Z,1.30
2022-09-20T12:54:07.519Z,1.13
2022-09-20T12:56:38.751Z,1.07
2022-09-20T12:59:07.708Z,1.20
2022-09-20T13:01:38.036Z,1.00
2022-09-20T13:04:24.320Z,1.60
2022-09-20T13:07:11.704Z,1.00
2022-09-20T13:09:39.259Z,1.50
2022-09-20T13:12:10.492Z,1.43
2022-09-20T13:14:40.277Z,1.40
2022-09-20T13:17:09.715Z,0.97
2022-09-20T13:19:39.021Z,1.30
2022-09-20T13:22:08.254Z,1.20
2022-09-20T13:24:40.010Z,1.17
2022-09-20T13:27:09.802Z,1.00
2022-09-20T13:29:39.924Z,1.40
2022-09-20T13:32:17.735Z,1.20
2022-09-20T13:34:45.587Z,0.90
2022-09-20T13:37:23.386Z,1.00
2022-09-20T13:39:54.334Z,1.00
2022-09-20T13:42:23.242Z,0.83
2022-09-20T13:44:50.987Z,0.97
2022-09-20T13:47:25.839Z,1.00
2022-09-20T13:49:53.446Z,1.00
2022-09-20T13:52:25.051Z,1.00
2022-09-20T13:54:52.438Z,1.00
2022-09-20T13:57:22.224Z,1.10
2022-09-20T13:59:52.564Z,1.10
2022-09-20T14:02:23.019Z,0.90
2022-09-20T14:04:51.943Z,1.40
2022-09-20T14:07:19.386Z,1.37
2022-09-20T14:09:46.795Z,1.10
2022-09-20T14:12:14.798Z,2.20
2022-09-20T14:14:42.856Z,1.20
2022-09-20T14:17:14.913Z,1.30
2022-09-20T14:19:43.219Z,1.10
2022-09-20T14:22:16.699Z,1.50
2022-09-20T14:24:57.601Z,1.47
2022-09-20T14:27:25.014Z,1.20
2022-09-20T14:29:53.119Z,1.63
2022-09-20T14:32:38.659Z,1.20
2022-09-20T14:35:09.130Z,1.20
2022-09-20T14:37:41.925Z,1.10
2022-09-20T14:40:18.095Z,1.43
2022-09-20T14:42:46.596Z,1.47
2022-09-20T14:45:21.373Z,1.40
2022-09-20T14:47:54.256Z,1.50
2022-09-20T14:50:25.278Z,1.70
2022-09-20T14:53:16.899Z,1.40
2022-09-20T14:55:55.660Z,1.30
2022-09-20T14:58:24.730Z,2.00
2022-09-20T15:00:53.519Z,1.50
2022-09-20T15:03:25.686Z,1.50
2022-09-20T15:05:54.492Z,1.40
2022-09-20T15:08:21.853Z,1.20
2022-09-20T15:10:49.242Z,1.50
2022-09-20T15:13:16.933Z,1.20
2022-09-20T15:15:45.712Z,1.30
2022-09-20T15:18:19.434Z,1.27
2022-09-20T15:20:46.870Z,1.30
2022-09-20T15:23:15.662Z,1.13
2022-09-20T15:25:43.071Z,1.30
2022-09-20T15:28:14.759Z,1.27
2022-09-20T15:30:42.232Z,1.00
2022-09-20T15:33:11.446Z,1.50
2022-09-20T15:35:38.949Z,1.27
2022-09-20T15:38:08.815Z,1.23
2022-09-20T15:40:39.142Z,1.30
2022-09-20T15:43:07.290Z,1.30
2022-09-20T15:45:35.036Z,1.30
2022-09-20T15:48:02.993Z,1.30
2022-09-20T15:50:30.411Z,1.13
2022-09-20T15:52:59.954Z,1.10
2022-09-20T15:55:27.766Z,1.40
2022-09-20T15:57:56.500Z,1.23
2022-09-20T16:00:24.042Z,1.00
2022-09-20T16:02:51.775Z,1.60
2022-09-20T16:05:19.186Z,1.50
2022-09-20T16:07:47.122Z,1.50
2022-09-20T16:10:14.533Z,1.40
2022-09-20T16:12:42.010Z,1.37
2022-09-20T16:15:11.759Z,1.13
2022-09-20T16:17:56.568Z,1.23
2022-09-20T16:20:24.174Z,1.50
2022-09-20T16:22:51.674Z,1.40
2022-09-20T16:25:19.105Z,1.37
2022-09-20T16:27:46.544Z,1.40
2022-09-20T16:30:15.742Z,1.50
2022-09-20T16:32:43.272Z,1.60
2022-09-20T16:35:11.096Z,2.20
2022-09-20T16:37:39.336Z,1.90
2022-09-20T16:40:07.466Z,1.47
2022-09-20T16:42:34.950Z,1.43
2022-09-20T16:45:02.295Z,1.40
2022-09-20T16:47:31.377Z,1.43
2022-09-20T16:49:58.755Z,1.90
2022-09-20T16:52:26.456Z,1.73
2022-09-20T16:54:53.916Z,1.87
2022-09-20T16:57:22.416Z,2.70
2022-09-20T16:59:51.763Z,2.40
2022-09-20T17:02:19.491Z,2.07
2022-09-20T17:04:48.373Z,1.50
2022-09-20T17:07:15.760Z,1.63
2022-09-20T17:09:43.303Z,1.80
2022-09-20T17:12:10.700Z,1.57
2022-09-20T17:14:38.208Z,1.53
2022-09-20T17:17:06.364Z,1.70
2022-09-20T17:19:33.885Z,1.80
2022-09-20T17:22:02.715Z,1.43
2022-09-20T17:24:30.515Z,2.03
2022-09-20T17:26:59.102Z,1.97
2022-09-20T17:29:27.603Z,1.63
2022-09-20T17:31:59.413Z,2.10
2022-09-20T17:34:29.591Z,1.70
2022-09-20T17:36:56.971Z,1.80
2022-09-20T17:39:25.826Z,1.70
2022-09-20T17:41:53.244Z,1.90
2022-09-20T17:44:20.647Z,1.60
2022-09-20T17:46:49.579Z,1.70
2022-09-20T17:49:18.243Z,1.90
2022-09-20T17:51:46.809Z,1.80
2022-09-20T17:54:14.576Z,2.07
2022-09-20T17:56:43.857Z,1.80
2022-09-20T17:59:12.323Z,2.00
2022-09-20T18:01:40.297Z,1.87
2022-09-20T18:04:08.324Z,1.90
2022-09-20T18:06:36.603Z,1.87
2022-09-20T18:09:05.054Z,2.30
2022-09-20T18:11:33.602Z,3.27
2022-09-20T18:14:03.495Z,4.37
2022-09-20T18:16:31.601Z,13.23
2022-09-20T18:19:00.019Z,6.40
2022-09-20T18:21:28.330Z,4.50
2022-09-20T18:23:57.157Z,3.20
2022-09-20T18:26:25.886Z,3.93
2022-09-20T18:28:54.714Z,6.43
2022-09-20T18:31:23.938Z,7.33
2022-09-20T18:33:53.383Z,5.17
2022-09-20T18:36:20.797Z,3.83
2022-09-20T18:38:48.281Z,2.50
2022-09-20T18:41:15.669Z,2.00
2022-09-20T18:43:44.090Z,2.30
2022-09-20T18:46:11.937Z,1.90
2022-09-20T18:48:41.119Z,2.03
2022-09-20T18:51:09.413Z,2.30
2022-09-20T18:53:37.487Z,3.00
2022-09-20T18:56:08.802Z,2.10
2022-09-20T18:58:38.432Z,2.37
2022-09-20T19:01:12.891Z,2.80
2022-09-20T19:03:49.229Z,3.97
2022-09-20T19:06:19.131Z,4.20
2022-09-20T19:08:51.651Z,8.40
2022-09-20T19:11:26.952Z,7.80
2022-09-20T19:13:56.239Z,4.60
2022-09-20T19:16:24.789Z,3.73
2022-09-20T19:19:03.646Z,4.33
2022-09-20T19:21:35.748Z,2.87
2022-09-20T19:24:08.302Z,2.37
2022-09-20T19:26:38.234Z,2.63
2022-09-20T19:29:11.402Z,12.63
2022-09-20T19:31:39.028Z,14.97
2022-09-20T19:34:13.899Z,8.83
2022-09-20T19:36:49.072Z,4.77
2022-09-20T19:39:19.369Z,4.17
2022-09-20T19:41:50.052Z,5.27
2022-09-20T19:44:25.336Z,4.60
2022-09-20T19:47:02.298Z,4.10
2022-09-20T19:49:32.895Z,2.90
2022-09-20T19:52:01.122Z,2.80
2022-09-20T19:54:28.769Z,3.20
2022-09-20T19:56:57.655Z,4.63
2022-09-20T19:59:25.983Z,4.63
2022-09-20T20:01:53.788Z,3.77
2022-09-20T20:04:21.551Z,4.17
2022-09-20T20:06:54.535Z,3.90
2022-09-20T20:09:27.055Z,3.77
2022-09-20T20:12:00.106Z,3.57
2022-09-20T20:14:33.352Z,3.47
2022-09-20T20:17:04.006Z,3.20
2022-09-20T20:19:40.835Z,3.53
2022-09-20T20:22:16.378Z,3.80
2022-09-20T20:24:47.588Z,4.03
2022-09-20T20:27:15.035Z,4.00
2022-09-20T20:29:42.413Z,4.30
2022-09-20T20:32:09.803Z,3.90
2022-09-20T20:34:37.647Z,4.03
2022-09-20T20:37:05.125Z,3.47
2022-09-20T20:39:33.899Z,3.57
2022-09-20T20:42:02.741Z,3.57
2022-09-20T20:44:30.476Z,3.70
2022-09-20T20:46:57.990Z,3.77
2022-09-20T20:49:25.424Z,6.00
2022-09-20T20:51:52.892Z,6.40
2022-09-20T20:54:20.811Z,5.13
2022-09-20T20:56:49.558Z,4.03
2022-09-20T20:59:17.393Z,3.30
2022-09-20T21:01:45.853Z,3.40
2022-09-20T21:04:15.201Z,3.87
2022-09-20T21:06:42.638Z,4.87
2022-09-20T21:09:10.710Z,6.90
2022-09-20T21:11:39.376Z,11.93
2022-09-20T21:14:08.979Z,14.80
2022-09-20T21:16:37.242Z,12.57
2022-09-20T21:19:05.670Z,9.77
2022-09-20T21:21:34.794Z,8.17
2022-09-20T21:24:03.166Z,7.03
2022-09-20T21:26:32.815Z,6.50
2022-09-20T21:29:00.935Z,6.00
2022-09-20T21:31:30.173Z,6.33
2022-09-20T21:33:58.049Z,6.37
2022-09-20T21:36:26.544Z,5.40
2022-09-20T21:38:53.902Z,5.20
2022-09-20T21:41:22.680Z,4.33
2022-09-20T21:43:53.048Z,5.03
2022-09-20T21:46:21.495Z,4.50
2022-09-20T21:48:51.496Z,4.87
2022-09-20T21:51:20.384Z,4.90
2022-09-20T21:53:48.240Z,5.30
2022-09-20T21:56:17.410Z,5.37
2022-09-20T21:58:45.924Z,4.83
2022-09-20T22:01:14.756Z,4.60
2022-09-20T22:03:42.840Z,4.40
2022-09-20T22:06:13.409Z,4.47
2022-09-20T22:08:42.004Z,3.10
2022-09-20T22:11:14.958Z,2.87
2022-09-20T22:13:42.726Z,2.97
2022-09-20T22:16:11.029Z,3.17
2022-09-20T22:18:39.655Z,3.30
2022-09-20T22:21:08.481Z,3.17
2022-09-20T22:23:37.524Z,4.20
2022-09-20T22:26:06.443Z,3.83
2022-09-20T22:28:33.909Z,4.20
2022-09-20T22:31:08.619Z,3.70
2022-09-20T22:33:36.829Z,3.80
2022-09-20T22:36:07.495Z,4.00
2022-09-20T22:38:35.050Z,3.83
2022-09-20T22:41:03.798Z,4.00
2022-09-20T22:43:32.655Z,3.33
2022-09-20T22:46:02.810Z,3.50
2022-09-20T22:48:30.539Z,3.27
2022-09-20T22:50:59.505Z,3.50
2022-09-20T22:53:28.060Z,3.60
2022-09-20T22:55:55.507Z,3.30
2022-09-20T22:58:24.208Z,3.20
2022-09-20T23:00:51.724Z,3.00
2022-09-20T23:03:19.276Z,3.17
2022-09-20T23:05:46.672Z,3.30
2022-09-20T23:08:14.039Z,3.13
2022-09-20T23:10:41.486Z,3.40
2022-09-20T23:13:08.928Z,3.20
2022-09-20T23:15:37.716Z,3.90
2022-09-20T23:18:05.918Z,3.13
2022-09-20T23:20:33.500Z,3.37
2022-09-20T23:23:00.896Z,3.03
2022-09-20T23:25:28.302Z,3.03
2022-09-20T23:27:55.750Z,3.10
2022-09-20T23:30:23.240Z,2.80
2022-09-20T23:32:54.061Z,3.40
2022-09-20T23:35:21.455Z,3.00
2022-09-20T23:37:48.868Z,3.30
2022-09-20T23:40:16.341Z,3.50
2022-09-20T23:42:43.763Z,3.50
2022-09-20T23:45:12.219Z,4.90
2022-09-20T23:47:39.710Z,3.87
2022-09-20T23:50:08.860Z,3.90
2022-09-20T23:52:36.273Z,3.50
2022-09-20T23:55:03.711Z,2.97
2022-09-20T23:57:31.184Z,3.10
2022-09-20T23:59:59.242Z,3.00
